createdAt,value
2022-08-26T00:01:51.314Z,3.00
2022-08-26T00:04:18.057Z,3.37
2022-08-26T00:06:46.058Z,3.27
2022-08-26T00:09:16.321Z,4.23
2022-08-26T00:11:44.804Z,2.83
2022-08-26T00:14:13.398Z,3.10
2022-08-26T00:16:40.923Z,3.30
2022-08-26T00:19:14.086Z,2.70
2022-08-26T00:21:41.179Z,2.77
2022-08-26T00:24:07.581Z,3.30
2022-08-26T00:26:34.873Z,2.50
2022-08-26T00:29:01.420Z,2.40
2022-08-26T00:31:27.990Z,2.90
2022-08-26T00:33:57.879Z,2.93
2022-08-26T00:36:24.310Z,3.70
2022-08-26T00:38:50.956Z,2.70
2022-08-26T00:41:19.452Z,3.00
2022-08-26T00:43:47.863Z,2.90
2022-08-26T00:46:23.479Z,3.00
2022-08-26T00:48:53.730Z,3.07
2022-08-26T00:51:24.707Z,3.77
2022-08-26T00:54:04.023Z,3.30
2022-08-26T00:56:36.615Z,3.80
2022-08-26T00:59:08.083Z,3.20
2022-08-26T01:01:36.533Z,3.30
2022-08-26T01:04:05.860Z,3.77
2022-08-26T01:06:32.370Z,3.97
2022-08-26T01:08:58.822Z,3.03
2022-08-26T01:11:25.916Z,2.97
2022-08-26T01:13:56.175Z,3.63
2022-08-26T01:16:24.678Z,3.50
2022-08-26T01:18:54.713Z,3.07
2022-08-26T01:21:29.582Z,3.83
2022-08-26T01:23:57.904Z,3.83
2022-08-26T01:26:32.766Z,3.40
2022-08-26T01:29:03.008Z,2.97
2022-08-26T01:31:37.406Z,2.87
2022-08-26T01:34:10.904Z,2.77
2022-08-26T01:36:39.347Z,3.20
2022-08-26T01:39:07.223Z,2.63
2022-08-26T01:41:35.027Z,3.40
2022-08-26T01:44:03.341Z,2.67
2022-08-26T01:46:31.406Z,3.00
2022-08-26T01:49:02.373Z,2.60
2022-08-26T01:51:31.434Z,3.00
2022-08-26T01:53:58.464Z,2.47
2022-08-26T01:56:26.561Z,2.80
2022-08-26T01:59:02.650Z,1.93
2022-08-26T02:01:29.759Z,2.63
2022-08-26T02:04:06.951Z,2.10
2022-08-26T02:06:33.484Z,2.73
2022-08-26T02:09:03.616Z,2.50
2022-08-26T02:11:30.473Z,2.47
2022-08-26T02:14:19.729Z,2.50
2022-08-26T02:16:48.921Z,2.07
2022-08-26T02:19:27.735Z,2.03
2022-08-26T02:21:54.419Z,2.30
2022-08-26T02:24:27.554Z,2.27
2022-08-26T02:26:55.831Z,2.03
2022-08-26T02:29:26.535Z,1.90
2022-08-26T02:31:55.726Z,1.93
2022-08-26T02:34:31.156Z,2.50
2022-08-26T02:37:03.554Z,2.07
2022-08-26T02:39:31.334Z,2.20
2022-08-26T02:41:59.148Z,1.77
2022-08-26T02:44:26.736Z,1.97
2022-08-26T02:46:54.602Z,1.47
2022-08-26T02:49:23.693Z,2.00
2022-08-26T02:51:51.012Z,1.70
2022-08-26T02:54:21.300Z,1.87
2022-08-26T02:56:48.336Z,1.70
2022-08-26T02:59:15.357Z,2.03
2022-08-26T03:01:42.548Z,1.70
2022-08-26T03:04:11.770Z,1.40
2022-08-26T03:06:39.228Z,1.30
2022-08-26T03:09:07.749Z,1.73
2022-08-26T03:11:34.454Z,1.57
2022-08-26T03:14:01.797Z,1.63
2022-08-26T03:16:35.738Z,2.03
2022-08-26T03:19:04.137Z,1.77
2022-08-26T03:21:30.818Z,1.27
2022-08-26T03:23:58.702Z,1.70
2022-08-26T03:26:26.045Z,1.30
2022-08-26T03:29:11.373Z,1.80
2022-08-26T03:31:37.939Z,1.50
2022-08-26T03:34:04.640Z,1.20
2022-08-26T03:36:31.351Z,1.40
2022-08-26T03:38:58.464Z,1.30
2022-08-26T03:41:24.928Z,1.60
2022-08-26T03:43:51.991Z,1.43
2022-08-26T03:46:20.465Z,1.83
2022-08-26T03:48:47.704Z,1.53
2022-08-26T03:51:19.035Z,1.97
2022-08-26T03:53:47.683Z,1.30
2022-08-26T03:56:15.178Z,1.30
2022-08-26T03:58:42.880Z,1.40
2022-08-26T04:01:09.529Z,1.37
2022-08-26T04:03:54.673Z,1.67
2022-08-26T04:06:21.317Z,1.50
2022-08-26T04:08:48.153Z,1.40
2022-08-26T04:11:23.673Z,1.17
2022-08-26T04:13:50.337Z,1.43
2022-08-26T04:16:18.047Z,1.43
2022-08-26T04:18:46.673Z,1.80
2022-08-26T04:21:13.581Z,1.70
2022-08-26T04:23:47.694Z,1.23
2022-08-26T04:26:15.157Z,1.30
2022-08-26T04:28:41.670Z,1.27
2022-08-26T04:31:12.260Z,0.93
2022-08-26T04:33:41.727Z,1.60
2022-08-26T04:36:08.817Z,1.60
2022-08-26T04:38:35.486Z,1.40
2022-08-26T04:41:03.305Z,1.13
2022-08-26T04:43:32.202Z,1.40
2022-08-26T04:46:01.250Z,1.10
2022-08-26T04:48:32.698Z,1.23
2022-08-26T04:50:59.966Z,1.40
2022-08-26T04:53:27.385Z,1.33
2022-08-26T04:55:55.250Z,1.10
2022-08-26T04:58:24.728Z,1.40
2022-08-26T05:00:54.141Z,0.93
2022-08-26T05:03:21.188Z,1.03
2022-08-26T05:05:49.956Z,1.10
2022-08-26T05:08:18.304Z,1.03
2022-08-26T05:10:48.476Z,1.30
2022-08-26T05:13:17.712Z,1.50
2022-08-26T05:15:48.571Z,1.30
2022-08-26T05:18:21.282Z,1.10
2022-08-26T05:20:54.474Z,1.20
2022-08-26T05:23:23.049Z,1.10
2022-08-26T05:25:55.792Z,1.13
2022-08-26T05:28:26.093Z,1.70
2022-08-26T05:30:53.352Z,1.10
2022-08-26T05:33:20.054Z,1.23
2022-08-26T05:35:47.021Z,1.10
2022-08-26T05:38:19.799Z,1.40
2022-08-26T05:40:52.546Z,1.50
2022-08-26T05:43:20.052Z,1.77
2022-08-26T05:45:50.024Z,1.37
2022-08-26T05:48:18.867Z,1.20
2022-08-26T05:50:51.716Z,1.23
2022-08-26T05:53:20.608Z,1.33
2022-08-26T05:55:54.938Z,1.20
2022-08-26T05:58:23.146Z,1.50
2022-08-26T06:01:05.293Z,1.30
2022-08-26T06:03:38.575Z,1.10
2022-08-26T06:06:11.320Z,1.00
2022-08-26T06:08:38.163Z,1.37
2022-08-26T06:11:18.251Z,1.67
2022-08-26T06:13:46.053Z,1.20
2022-08-26T06:16:15.334Z,1.13
2022-08-26T06:18:45.386Z,0.87
2022-08-26T06:21:24.505Z,1.27
2022-08-26T06:24:13.008Z,1.63
2022-08-26T06:26:42.917Z,1.20
2022-08-26T06:29:13.068Z,1.07
2022-08-26T06:31:50.051Z,1.37
2022-08-26T06:34:18.125Z,1.70
2022-08-26T06:36:45.020Z,1.60
2022-08-26T06:39:14.511Z,1.30
2022-08-26T06:41:43.460Z,1.30
2022-08-26T06:44:10.686Z,1.30
2022-08-26T06:46:38.244Z,1.80
2022-08-26T06:49:05.547Z,1.97
2022-08-26T06:51:34.742Z,2.40
2022-08-26T06:54:02.444Z,1.30
2022-08-26T06:56:34.001Z,2.07
2022-08-26T06:59:00.545Z,1.30
2022-08-26T07:01:30.073Z,1.40
2022-08-26T07:04:00.660Z,0.97
2022-08-26T07:06:28.260Z,1.37
2022-08-26T07:09:01.630Z,1.40
2022-08-26T07:11:30.691Z,1.50
2022-08-26T07:13:58.903Z,1.00
2022-08-26T07:16:27.827Z,1.13
2022-08-26T07:18:57.198Z,1.20
2022-08-26T07:21:24.713Z,1.40
2022-08-26T07:23:56.399Z,1.40
2022-08-26T07:26:27.473Z,1.43
2022-08-26T07:28:57.284Z,1.10
2022-08-26T07:31:26.665Z,1.60
2022-08-26T07:33:54.035Z,1.33
2022-08-26T07:36:21.844Z,2.03
2022-08-26T07:38:48.779Z,1.17
2022-08-26T07:41:17.381Z,1.30
2022-08-26T07:43:45.468Z,1.73
2022-08-26T07:46:18.360Z,1.43
2022-08-26T07:48:48.983Z,1.23
2022-08-26T07:51:17.731Z,1.37
2022-08-26T07:53:48.045Z,1.80
2022-08-26T07:56:19.035Z,2.13
2022-08-26T07:58:50.382Z,1.80
2022-08-26T08:01:18.386Z,1.60
2022-08-26T08:03:45.339Z,1.70
2022-08-26T08:06:12.150Z,1.20
2022-08-26T08:08:41.281Z,0.80
2022-08-26T08:11:07.836Z,1.20
2022-08-26T08:13:38.012Z,1.10
2022-08-26T08:16:05.360Z,1.00
2022-08-26T08:18:31.960Z,2.03
2022-08-26T08:21:21.303Z,1.30
2022-08-26T08:23:46.942Z,1.20
2022-08-26T08:26:14.111Z,1.33
2022-08-26T08:28:40.603Z,1.20
2022-08-26T08:31:08.083Z,1.63
2022-08-26T08:33:35.016Z,1.33
2022-08-26T08:36:01.822Z,1.10
2022-08-26T08:38:29.550Z,1.03
2022-08-26T08:40:56.002Z,0.90
2022-08-26T08:43:40.090Z,1.10
2022-08-26T08:46:12.470Z,1.20
2022-08-26T08:48:43.554Z,1.40
2022-08-26T08:51:18.880Z,1.20
2022-08-26T08:53:49.425Z,1.13
2022-08-26T08:56:26.077Z,1.40
2022-08-26T08:59:14.385Z,1.20
2022-08-26T09:02:23.913Z,1.00
2022-08-26T09:05:05.523Z,1.33
2022-08-26T09:07:40.197Z,1.47
2022-08-26T09:10:32.330Z,1.03
2022-08-26T09:13:01.029Z,1.40
2022-08-26T09:15:51.024Z,1.20
2022-08-26T09:18:35.974Z,1.13
2022-08-26T09:21:06.620Z,1.63
2022-08-26T09:23:36.267Z,1.10
2022-08-26T09:26:33.452Z,1.10
2022-08-26T09:29:03.678Z,0.90
2022-08-26T09:31:35.765Z,1.87
2022-08-26T09:34:13.295Z,1.13
2022-08-26T09:36:48.570Z,1.10
2022-08-26T09:39:37.741Z,1.13
2022-08-26T09:42:11.842Z,1.20
2022-08-26T09:45:08.347Z,0.80
2022-08-26T09:47:47.266Z,1.03
2022-08-26T09:50:30.928Z,1.20
2022-08-26T09:53:12.996Z,0.97
2022-08-26T09:55:42.424Z,0.87
2022-08-26T09:58:33.132Z,1.47
2022-08-26T10:01:01.627Z,0.70
2022-08-26T10:03:33.192Z,1.13
2022-08-26T10:06:06.721Z,1.10
2022-08-26T10:08:38.322Z,1.60
2022-08-26T10:11:37.011Z,1.03
2022-08-26T10:14:16.003Z,1.00
2022-08-26T10:16:48.698Z,1.40
2022-08-26T10:19:25.311Z,0.87
2022-08-26T10:22:13.589Z,1.10
2022-08-26T10:24:48.283Z,0.93
2022-08-26T10:27:16.238Z,0.90
2022-08-26T10:29:46.314Z,0.90
2022-08-26T10:32:21.094Z,1.10
2022-08-26T10:34:47.589Z,0.70
2022-08-26T10:37:18.752Z,0.73
2022-08-26T10:40:00.920Z,2.13
2022-08-26T10:42:40.355Z,1.20
2022-08-26T10:45:15.506Z,0.90
2022-08-26T10:47:53.252Z,0.80
2022-08-26T10:50:23.141Z,1.20
2022-08-26T10:53:01.996Z,1.03
2022-08-26T10:55:42.991Z,1.00
2022-08-26T10:58:26.573Z,1.60
2022-08-26T11:01:40.804Z,1.50
2022-08-26T11:04:13.917Z,1.40
2022-08-26T11:06:40.558Z,1.20
2022-08-26T11:09:09.205Z,0.90
2022-08-26T11:11:41.624Z,0.90
2022-08-26T11:14:29.029Z,0.90
2022-08-26T11:16:57.662Z,1.37
2022-08-26T11:19:59.339Z,1.13
2022-08-26T11:22:27.312Z,1.10
2022-08-26T11:24:56.733Z,1.50
2022-08-26T11:27:23.109Z,1.10
2022-08-26T11:29:56.717Z,1.00
2022-08-26T11:32:34.580Z,1.10
2022-08-26T11:35:05.251Z,0.80
2022-08-26T11:37:42.536Z,1.03
2022-08-26T11:40:14.734Z,1.13
2022-08-26T11:42:46.367Z,1.00
2022-08-26T11:45:26.835Z,0.80
2022-08-26T11:47:54.754Z,1.10
2022-08-26T11:50:27.509Z,1.30
2022-08-26T11:52:59.098Z,1.10
2022-08-26T11:55:25.512Z,0.87
2022-08-26T11:57:56.228Z,1.27
2022-08-26T12:00:33.899Z,0.73
2022-08-26T12:03:06.093Z,0.73
2022-08-26T12:05:38.338Z,1.30
2022-08-26T12:08:11.364Z,1.00
2022-08-26T12:10:38.894Z,0.90
2022-08-26T12:13:07.499Z,0.70
2022-08-26T12:15:35.644Z,1.00
2022-08-26T12:18:29.332Z,1.00
2022-08-26T12:20:59.415Z,0.90
2022-08-26T12:23:34.944Z,1.40
2022-08-26T12:26:08.353Z,0.70
2022-08-26T12:28:45.829Z,0.80
2022-08-26T12:31:25.093Z,0.93
2022-08-26T12:33:52.522Z,0.90
2022-08-26T12:36:31.384Z,1.20
2022-08-26T12:39:06.984Z,0.90
2022-08-26T12:41:44.626Z,1.53
2022-08-26T12:44:32.286Z,1.00
2022-08-26T12:47:23.475Z,0.97
2022-08-26T12:50:20.547Z,0.83
2022-08-26T12:53:00.988Z,0.90
2022-08-26T12:55:43.812Z,1.33
2022-08-26T12:58:35.217Z,1.07
2022-08-26T13:01:05.012Z,0.97
2022-08-26T13:03:34.435Z,1.17
2022-08-26T13:06:15.961Z,1.30
2022-08-26T13:08:45.941Z,0.90
2022-08-26T13:11:22.320Z,0.70
2022-08-26T13:13:51.898Z,1.00
2022-08-26T13:16:21.863Z,1.23
2022-08-26T13:18:51.638Z,0.70
2022-08-26T13:21:20.870Z,0.90
2022-08-26T13:23:48.034Z,1.00
2022-08-26T13:26:14.810Z,1.17
2022-08-26T13:28:42.334Z,1.20
2022-08-26T13:31:12.100Z,1.47
2022-08-26T13:33:39.033Z,1.10
2022-08-26T13:36:06.526Z,1.10
2022-08-26T13:38:34.097Z,0.97
2022-08-26T13:41:02.552Z,0.90
2022-08-26T13:43:31.115Z,1.00
2022-08-26T13:45:57.861Z,1.00
2022-08-26T13:48:24.370Z,1.47
2022-08-26T13:50:51.845Z,1.03
2022-08-26T13:53:18.795Z,1.60
2022-08-26T13:55:45.847Z,1.33
2022-08-26T13:58:13.587Z,1.17
2022-08-26T14:00:41.843Z,1.30
2022-08-26T14:03:13.107Z,1.30
2022-08-26T14:05:40.217Z,0.90
2022-08-26T14:08:07.382Z,1.10
2022-08-26T14:10:34.315Z,1.60
2022-08-26T14:13:00.885Z,1.53
2022-08-26T14:15:27.856Z,2.03
2022-08-26T14:17:55.960Z,1.17
2022-08-26T14:20:27.970Z,1.20
2022-08-26T14:23:13.067Z,1.10
2022-08-26T14:25:40.288Z,1.77
2022-08-26T14:28:06.739Z,1.43
2022-08-26T14:30:34.204Z,1.83
2022-08-26T14:33:00.767Z,1.10
2022-08-26T14:35:30.196Z,1.40
2022-08-26T14:37:57.235Z,1.20
2022-08-26T14:40:29.654Z,0.97
2022-08-26T14:42:56.234Z,1.40
2022-08-26T14:45:27.359Z,1.70
2022-08-26T14:47:56.624Z,1.93
2022-08-26T14:50:26.093Z,1.40
2022-08-26T14:53:11.141Z,1.10
2022-08-26T14:55:41.669Z,1.03
2022-08-26T14:58:10.029Z,1.60
2022-08-26T15:00:37.348Z,1.37
2022-08-26T15:03:04.031Z,1.13
2022-08-26T15:05:30.679Z,1.10
2022-08-26T15:07:57.284Z,1.20
2022-08-26T15:10:24.111Z,1.37
2022-08-26T15:12:50.581Z,1.00
2022-08-26T15:15:18.584Z,1.37
2022-08-26T15:17:45.306Z,1.30
2022-08-26T15:20:12.425Z,1.57
2022-08-26T15:22:43.148Z,1.00
2022-08-26T15:25:10.959Z,1.03
2022-08-26T15:27:37.729Z,1.27
2022-08-26T15:30:11.230Z,0.90
2022-08-26T15:32:37.713Z,1.70
2022-08-26T15:35:08.819Z,1.37
2022-08-26T15:37:36.031Z,1.50
2022-08-26T15:40:02.911Z,1.80
2022-08-26T15:42:29.491Z,1.17
2022-08-26T15:44:55.974Z,1.10
2022-08-26T15:47:23.724Z,1.30
2022-08-26T15:49:50.194Z,0.90
2022-08-26T15:52:17.124Z,1.30
2022-08-26T15:54:43.578Z,1.20
2022-08-26T15:57:12.377Z,1.30
2022-08-26T15:59:40.348Z,1.50
2022-08-26T16:02:07.434Z,0.80
2022-08-26T16:04:34.265Z,0.90
2022-08-26T16:07:00.905Z,1.10
2022-08-26T16:09:28.748Z,1.60
2022-08-26T16:11:56.193Z,1.17
2022-08-26T16:14:22.995Z,1.50
2022-08-26T16:16:49.889Z,1.37
2022-08-26T16:19:16.810Z,1.47
2022-08-26T16:21:44.670Z,1.47
2022-08-26T16:24:11.523Z,1.40
2022-08-26T16:26:39.430Z,1.33
2022-08-26T16:29:12.312Z,1.40
2022-08-26T16:31:39.083Z,1.30
2022-08-26T16:34:07.746Z,1.20
2022-08-26T16:36:38.837Z,1.57
2022-08-26T16:39:07.506Z,1.53
2022-08-26T16:41:35.140Z,1.50
2022-08-26T16:44:01.976Z,1.17
2022-08-26T16:46:28.793Z,1.03
2022-08-26T16:48:57.195Z,1.00
2022-08-26T16:51:26.931Z,1.40
2022-08-26T16:53:54.819Z,1.20
2022-08-26T16:56:33.686Z,1.80
2022-08-26T16:59:06.450Z,1.30
2022-08-26T17:01:33.023Z,1.33
2022-08-26T17:03:59.626Z,1.20
2022-08-26T17:06:26.082Z,1.40
2022-08-26T17:08:53.059Z,1.40
2022-08-26T17:11:19.738Z,1.47
2022-08-26T17:13:46.298Z,2.00
2022-08-26T17:16:14.559Z,1.37
2022-08-26T17:18:41.629Z,1.33
2022-08-26T17:21:11.404Z,1.40
2022-08-26T17:23:39.175Z,1.20
2022-08-26T17:26:05.759Z,1.23
2022-08-26T17:28:33.115Z,1.40
2022-08-26T17:31:00.102Z,1.43
2022-08-26T17:33:27.280Z,1.60
2022-08-26T17:35:55.658Z,1.27
2022-08-26T17:38:23.007Z,1.50
2022-08-26T17:40:49.999Z,1.30
2022-08-26T17:43:17.301Z,1.37
2022-08-26T17:45:44.154Z,1.60
2022-08-26T17:48:11.280Z,1.30
2022-08-26T17:50:39.761Z,1.17
2022-08-26T17:53:06.181Z,1.53
2022-08-26T17:55:32.893Z,1.60
2022-08-26T17:58:00.026Z,1.83
2022-08-26T18:00:30.451Z,1.50
2022-08-26T18:02:56.989Z,1.13
2022-08-26T18:05:24.035Z,1.30
2022-08-26T18:07:51.458Z,1.97
2022-08-26T18:10:20.362Z,1.60
2022-08-26T18:12:47.395Z,1.70
2022-08-26T18:15:16.342Z,1.53
2022-08-26T18:17:43.211Z,1.50
2022-08-26T18:20:12.917Z,1.00
2022-08-26T18:22:39.838Z,1.20
2022-08-26T18:25:08.379Z,1.70
2022-08-26T18:27:36.342Z,1.37
2022-08-26T18:30:06.548Z,1.77
2022-08-26T18:32:33.033Z,1.90
2022-08-26T18:34:59.739Z,1.50
2022-08-26T18:37:29.455Z,1.57
2022-08-26T18:39:59.404Z,1.57
2022-08-26T18:42:26.447Z,1.30
2022-08-26T18:44:53.440Z,1.47
2022-08-26T18:47:20.083Z,1.60
2022-08-26T18:49:47.268Z,1.40
2022-08-26T18:52:13.766Z,1.50
2022-08-26T18:54:40.355Z,1.27
2022-08-26T18:57:07.132Z,1.27
2022-08-26T18:59:33.625Z,1.43
2022-08-26T19:02:00.778Z,1.20
2022-08-26T19:04:27.498Z,1.63
2022-08-26T19:06:54.259Z,1.50
2022-08-26T19:09:20.960Z,1.53
2022-08-26T19:11:49.671Z,1.77
2022-08-26T19:14:16.488Z,2.10
2022-08-26T19:16:46.577Z,1.50
2022-08-26T19:19:14.037Z,2.00
2022-08-26T19:21:40.739Z,1.17
2022-08-26T19:24:15.193Z,1.43
2022-08-26T19:26:44.194Z,1.67
2022-08-26T19:29:11.746Z,1.60
2022-08-26T19:31:38.194Z,1.67
2022-08-26T19:34:05.335Z,1.20
2022-08-26T19:36:32.737Z,1.40
2022-08-26T19:39:00.173Z,1.40
2022-08-26T19:41:37.074Z,1.40
2022-08-26T19:44:08.223Z,1.77
2022-08-26T19:46:36.304Z,1.47
2022-08-26T19:49:03.770Z,1.40
2022-08-26T19:51:33.364Z,1.40
2022-08-26T19:54:01.088Z,1.60
2022-08-26T19:56:28.512Z,1.70
2022-08-26T19:58:55.762Z,1.70
2022-08-26T20:01:23.049Z,2.00
2022-08-26T20:03:49.984Z,1.70
2022-08-26T20:06:16.941Z,2.03
2022-08-26T20:08:44.430Z,1.77
2022-08-26T20:11:14.794Z,1.50
2022-08-26T20:13:42.516Z,1.40
2022-08-26T20:16:11.441Z,1.40
2022-08-26T20:18:58.333Z,1.47
2022-08-26T20:21:27.799Z,2.13
2022-08-26T20:24:00.662Z,1.83
2022-08-26T20:26:29.434Z,1.53
2022-08-26T20:28:56.941Z,1.90
2022-08-26T20:31:24.893Z,1.77
2022-08-26T20:33:51.650Z,1.40
2022-08-26T20:36:20.488Z,2.27
2022-08-26T20:38:48.320Z,1.70
2022-08-26T20:41:15.940Z,1.93
2022-08-26T20:43:43.061Z,1.37
2022-08-26T20:46:18.086Z,1.50
2022-08-26T20:48:48.243Z,1.80
2022-08-26T20:51:15.758Z,1.43
2022-08-26T20:53:42.602Z,1.70
2022-08-26T20:56:10.469Z,1.70
2022-08-26T20:58:37.973Z,1.73
2022-08-26T21:01:07.989Z,1.70
2022-08-26T21:03:36.142Z,1.80
2022-08-26T21:06:03.795Z,1.77
2022-08-26T21:08:33.181Z,1.97
2022-08-26T21:11:00.718Z,1.67
2022-08-26T21:13:35.798Z,1.93
2022-08-26T21:16:10.412Z,1.80
2022-08-26T21:18:37.018Z,1.37
2022-08-26T21:21:05.122Z,1.50
2022-08-26T21:23:31.870Z,2.23
2022-08-26T21:26:10.694Z,1.70
2022-08-26T21:28:39.418Z,1.90
2022-08-26T21:31:08.480Z,1.60
2022-08-26T21:33:35.735Z,2.07
2022-08-26T21:36:03.264Z,1.60
2022-08-26T21:38:31.003Z,1.93
2022-08-26T21:41:03.453Z,1.83
2022-08-26T21:43:35.220Z,2.33
2022-08-26T21:46:12.610Z,1.90
2022-08-26T21:48:39.618Z,1.80
2022-08-26T21:51:06.734Z,1.60
2022-08-26T21:53:33.341Z,1.73
2022-08-26T21:56:04.329Z,1.93
2022-08-26T21:58:31.029Z,2.20
2022-08-26T22:00:57.536Z,1.93
2022-08-26T22:03:24.141Z,2.27
2022-08-26T22:05:51.256Z,2.00
2022-08-26T22:08:20.199Z,1.83
2022-08-26T22:10:52.115Z,1.70
2022-08-26T22:13:25.119Z,2.10
2022-08-26T22:15:51.818Z,1.70
2022-08-26T22:18:21.166Z,1.93
2022-08-26T22:20:48.072Z,1.73
2022-08-26T22:23:14.521Z,1.83
2022-08-26T22:25:41.414Z,1.90
2022-08-26T22:28:07.908Z,1.53
2022-08-26T22:30:35.353Z,1.63
2022-08-26T22:33:03.084Z,1.57
2022-08-26T22:35:30.369Z,1.90
2022-08-26T22:37:57.771Z,2.03
2022-08-26T22:40:24.594Z,2.40
2022-08-26T22:42:55.712Z,1.77
2022-08-26T22:45:24.750Z,1.90
2022-08-26T22:47:51.246Z,1.93
2022-08-26T22:50:18.601Z,2.00
2022-08-26T22:52:45.045Z,1.70
2022-08-26T22:55:11.498Z,1.90
2022-08-26T22:57:38.046Z,1.80
2022-08-26T23:00:05.836Z,2.17
2022-08-26T23:02:32.344Z,2.67
2022-08-26T23:04:58.776Z,1.80
2022-08-26T23:07:25.308Z,2.30
2022-08-26T23:09:51.743Z,1.87
2022-08-26T23:12:18.254Z,2.00
2022-08-26T23:14:44.734Z,1.70
2022-08-26T23:17:12.297Z,2.13
2022-08-26T23:19:38.833Z,1.80
2022-08-26T23:22:05.317Z,2.73
2022-08-26T23:24:32.733Z,2.43
2022-08-26T23:26:59.520Z,2.20
2022-08-26T23:29:26.417Z,2.00
2022-08-26T23:31:53.804Z,1.97
2022-08-26T23:34:38.751Z,2.20
2022-08-26T23:37:06.189Z,2.47
2022-08-26T23:39:34.010Z,2.63
2022-08-26T23:42:01.742Z,2.17
2022-08-26T23:44:30.654Z,1.93
2022-08-26T23:46:58.306Z,1.93
2022-08-26T23:49:25.785Z,2.70
2022-08-26T23:52:11.421Z,2.70
2022-08-26T23:54:38.988Z,2.60
2022-08-26T23:57:06.527Z,1.90
2022-08-26T23:59:34.009Z,2.00
